YBCG/OOL METAR and TAF weather

Enter ICAO airport designator
Station Type Date Time Source
YBCG METAR 2020/04/02 03:00 UTC NOAA

YBCG 020300Z AUTO 07010KT 9999 // OVC097 25/18 Q1014


Station Type Date Time Source
YBCG Decoded METAR 2020/04/02 03:00 UTC NOAA

Coolangatta Airport Aws, Australia (YBCG) 28-10S 153-30E 6M
Apr 01, 2020 - 11:00 PM EDT / 2020.04.02 0300 UTC
Wind: from the ENE (070 degrees) at 12 MPH (10 KT):0
Visibility: greater than 7 mile(s):0
Sky conditions: overcast
Temperature: 77 F (25 C)
Dew Point: 64 F (18 C)
Relative Humidity: 65%
Pressure (altimeter): 29.94 in. Hg (1014 hPa)
ob: YBCG 020300Z AUTO 07010KT 9999 // OVC097 25/18 Q1014
cycle: 3

Station Type Date Time Source
YBCG TAF 2020/04/02 00:00 UTC NOAA

TAF
AMD YBCG 020006Z 0200/0300 15008KT 9999 -SHRA SCT025
FM020300 06010KT 9999 -SHRA SCT025
FM021200 32006KT 9999 NSW SCT020 INTER 0200/0212 4000 SHRA BKN012

Example: see airport list